sensor_id;sensor_type;location;lat;lon;timestamp;pressure;altitude;pressure_sealevel;temperature;humidity
35307;BME280;21420;52.196;21.416;2023-05-01T15:10:46;100497.19;;;19.01;25.94
35307;BME280;21420;52.196;21.416;2023-05-01T15:13:13;100496.89;;;19.06;26.17
35307;BME280;21420;52.196;21.416;2023-05-01T15:15:40;100502.72;;;19.19;26.25
35307;BME280;21420;52.196;21.416;2023-05-01T15:18:10;100501.27;;;19.11;26.28
35307;BME280;21420;52.196;21.416;2023-05-01T15:20:37;100499.29;;;18.93;26.22
35307;BME280;21420;52.196;21.416;2023-05-01T15:23:04;100499.43;;;18.75;26.16
35307;BME280;21420;52.196;21.416;2023-05-01T15:25:31;100495.67;;;18.70;26.45
35307;BME280;21420;52.196;21.416;2023-05-01T15:27:57;100493.73;;;18.62;26.49
35307;BME280;21420;52.196;21.416;2023-05-01T15:30:24;100498.20;;;18.41;26.42
35307;BME280;21420;52.196;21.416;2023-05-01T15:32:51;100492.75;;;18.21;26.43
35307;BME280;21420;52.196;21.416;2023-05-01T15:35:21;100488.48;;;18.09;26.54
35307;BME280;21420;52.196;21.416;2023-05-01T15:37:48;100485.91;;;17.94;26.73
35307;BME280;21420;52.196;21.416;2023-05-01T15:40:16;100486.13;;;17.75;26.79
35307;BME280;21420;52.196;21.416;2023-05-01T15:42:42;100482.09;;;17.57;26.93
35307;BME280;21420;52.196;21.416;2023-05-01T15:45:10;100477.59;;;17.52;27.07
35307;BME280;21420;52.196;21.416;2023-05-01T15:47:37;100473.81;;;17.46;27.28
35307;BME280;21420;52.196;21.416;2023-05-01T15:50:07;100471.39;;;17.33;27.27
35307;BME280;21420;52.196;21.416;2023-05-01T15:52:34;100465.53;;;17.18;27.43
35307;BME280;21420;52.196;21.416;2023-05-01T15:55:01;100460.76;;;17.14;27.66
35307;BME280;21420;52.196;21.416;2023-05-01T15:57:29;100455.31;;;17.07;27.78
35307;BME280;21420;52.196;21.416;2023-05-01T15:59:57;100454.97;;;17.05;27.96
35307;BME280;21420;52.196;21.416;2023-05-01T16:02:25;100454.67;;;17.14;28.10
35307;BME280;21420;52.196;21.416;2023-05-01T16:04:54;100450.05;;;17.10;28.02
35307;BME280;21420;52.196;21.416;2023-05-01T16:07:21;100448.52;;;17.01;27.98
35307;BME280;21420;52.196;21.416;2023-05-01T16:09:47;100443.25;;;16.90;28.23
35307;BME280;21420;52.196;21.416;2023-05-01T16:12:14;100444.46;;;16.84;28.45
35307;BME280;21420;52.196;21.416;2023-05-01T16:14:41;100445.52;;;16.87;28.51
35307;BME280;21420;52.196;21.416;2023-05-01T16:17:08;100449.48;;;16.89;28.53
35307;BME280;21420;52.196;21.416;2023-05-01T16:19:35;100456.53;;;16.91;28.51
35307;BME280;21420;52.196;21.416;2023-05-01T16:22:05;100460.96;;;16.84;28.64
35307;BME280;21420;52.196;21.416;2023-05-01T16:24:33;100456.52;;;16.83;28.73
35307;BME280;21420;52.196;21.416;2023-05-01T16:27:01;100458.94;;;16.86;29.04
35307;BME280;21420;52.196;21.416;2023-05-01T16:29:31;100458.96;;;16.90;29.04
35307;BME280;21420;52.196;21.416;2023-05-01T16:31:58;100452.95;;;16.83;28.81
35307;BME280;21420;52.196;21.416;2023-05-01T16:34:26;100454.16;;;16.73;28.82
35307;BME280;21420;52.196;21.416;2023-05-01T16:36:53;100449.05;;;16.68;29.07
35307;BME280;21420;52.196;21.416;2023-05-01T16:39:21;100452.05;;;16.69;29.12
35307;BME280;21420;52.196;21.416;2023-05-01T16:41:50;100456.71;;;16.68;29.01
35307;BME280;21420;52.196;21.416;2023-05-01T16:44:19;100457.48;;;16.61;29.09
35307;BME280;21420;52.196;21.416;2023-05-01T16:46:56;100457.33;;;16.44;29.05
35307;BME280;21420;52.196;21.416;2023-05-01T16:49:25;100446.40;;;16.24;29.08
35307;BME280;21420;52.196;21.416;2023-05-01T16:51:55;100444.44;;;16.08;29.22
35307;BME280;21420;52.196;21.416;2023-05-01T16:54:25;100444.96;;;15.91;29.13
35307;BME280;21420;52.196;21.416;2023-05-01T16:57:01;100443.09;;;15.77;29.25
35307;BME280;21420;52.196;21.416;2023-05-01T16:59:29;100439.73;;;15.67;29.32
35307;BME280;21420;52.196;21.416;2023-05-01T17:01:56;100438.05;;;15.56;29.43
35307;BME280;21420;52.196;21.416;2023-05-01T17:04:23;100433.95;;;15.47;29.54
35307;BME280;21420;52.196;21.416;2023-05-01T17:06:50;100439.00;;;15.38;29.60
35307;BME280;21420;52.196;21.416;2023-05-01T17:09:17;100441.50;;;15.28;29.65
35307;BME280;21420;52.196;21.416;2023-05-01T17:11:54;100439.52;;;15.15;29.54
35307;BME280;21420;52.196;21.416;2023-05-01T17:14:22;100437.38;;;15.02;29.76
35307;BME280;21420;52.196;21.416;2023-05-01T17:16:49;100437.56;;;14.91;29.94
35307;BME280;21420;52.196;21.416;2023-05-01T17:19:16;100438.36;;;14.79;29.75
35307;BME280;21420;52.196;21.416;2023-05-01T17:21:43;100434.13;;;14.69;29.98
35307;BME280;21420;52.196;21.416;2023-05-01T17:24:09;100436.63;;;14.60;30.05
35307;BME280;21420;52.196;21.416;2023-05-01T17:26:38;100435.88;;;14.52;30.22
35307;BME280;21420;52.196;21.416;2023-05-01T17:29:05;100440.34;;;14.44;30.13
35307;BME280;21420;52.196;21.416;2023-05-01T17:31:31;100436.95;;;14.36;30.29
35307;BME280;21420;52.196;21.416;2023-05-01T17:33:58;100436.30;;;14.28;30.30
35307;BME280;21420;52.196;21.416;2023-05-01T17:36:25;100435.72;;;14.19;30.10
35307;BME280;21420;52.196;21.416;2023-05-01T17:38:52;100436.38;;;14.10;30.22
35307;BME280;21420;52.196;21.416;2023-05-01T17:41:20;100437.11;;;14.02;30.35
35307;BME280;21420;52.196;21.416;2023-05-01T17:43:49;100438.10;;;13.93;30.45
35307;BME280;21420;52.196;21.416;2023-05-01T17:46:16;100435.45;;;13.84;30.60
35307;BME280;21420;52.196;21.416;2023-05-01T17:48:43;100439.90;;;13.73;30.67
35307;BME280;21420;52.196;21.416;2023-05-01T17:51:10;100439.70;;;13.59;30.56
35307;BME280;21420;52.196;21.416;2023-05-01T17:53:40;100440.70;;;13.45;30.73
35307;BME280;21420;52.196;21.416;2023-05-01T17:56:07;100436.80;;;13.34;30.93
35307;BME280;21420;52.196;21.416;2023-05-01T17:58:34;100432.33;;;13.23;30.87
35307;BME280;21420;52.196;21.416;2023-05-01T18:01:02;100436.34;;;13.15;31.06
35307;BME280;21420;52.196;21.416;2023-05-01T18:03:30;100433.13;;;13.07;31.16
35307;BME280;21420;52.196;21.416;2023-05-01T18:06:00;100435.73;;;12.96;31.22
35307;BME280;21420;52.196;21.416;2023-05-01T18:08:27;100434.77;;;12.83;31.48
35307;BME280;21420;52.196;21.416;2023-05-01T18:10:53;100436.98;;;12.73;31.54
35307;BME280;21420;52.196;21.416;2023-05-01T18:13:20;100437.35;;;12.61;31.71
35307;BME280;21420;52.196;21.416;2023-05-01T18:15:56;100441.48;;;12.49;31.95
35307;BME280;21420;52.196;21.416;2023-05-01T18:18:23;100440.67;;;12.40;31.96
35307;BME280;21420;52.196;21.416;2023-05-01T18:20:50;100438.21;;;12.29;32.16
35307;BME280;21420;52.196;21.416;2023-05-01T18:23:17;100438.45;;;12.19;32.22
35307;BME280;21420;52.196;21.416;2023-05-01T18:25:44;100440.32;;;12.08;32.15
35307;BME280;21420;52.196;21.416;2023-05-01T18:28:12;100441.10;;;11.98;32.31
35307;BME280;21420;52.196;21.416;2023-05-01T18:30:38;100441.29;;;11.89;32.52
35307;BME280;21420;52.196;21.416;2023-05-01T18:33:05;100441.77;;;11.81;32.75
35307;BME280;21420;52.196;21.416;2023-05-01T18:35:32;100443.58;;;11.72;32.80
35307;BME280;21420;52.196;21.416;2023-05-01T18:37:59;100444.01;;;11.61;32.85
35307;BME280;21420;52.196;21.416;2023-05-01T18:40:25;100443.33;;;11.50;32.94
35307;BME280;21420;52.196;21.416;2023-05-01T18:42:52;100449.05;;;11.40;33.15
35307;BME280;21420;52.196;21.416;2023-05-01T18:45:19;100450.12;;;11.30;33.46
35307;BME280;21420;52.196;21.416;2023-05-01T18:47:46;100448.57;;;11.21;33.49
35307;BME280;21420;52.196;21.416;2023-05-01T18:50:13;100445.05;;;11.13;33.54
35307;BME280;21420;52.196;21.416;2023-05-01T18:52:42;100442.20;;;11.03;33.68
35307;BME280;21420;52.196;21.416;2023-05-01T18:55:09;100436.58;;;10.92;33.80
35307;BME280;21420;52.196;21.416;2023-05-01T18:57:37;100438.29;;;10.81;34.04
35307;BME280;21420;52.196;21.416;2023-05-01T19:00:03;100439.10;;;10.71;34.11
35307;BME280;21420;52.196;21.416;2023-05-01T19:02:32;100436.34;;;10.62;34.20
35307;BME280;21420;52.196;21.416;2023-05-01T19:04:58;100439.12;;;10.55;34.34
35307;BME280;21420;52.196;21.416;2023-05-01T19:07:25;100440.17;;;10.47;34.43
35307;BME280;21420;52.196;21.416;2023-05-01T19:09:52;100440.59;;;10.40;34.53
35307;BME280;21420;52.196;21.416;2023-05-01T19:12:19;100445.48;;;10.35;34.85
35307;BME280;21420;52.196;21.416;2023-05-01T19:14:45;100442.92;;;10.30;34.86
35307;BME280;21420;52.196;21.416;2023-05-01T19:17:12;100442.79;;;10.24;34.89
35307;BME280;21420;52.196;21.416;2023-05-01T19:19:39;100441.34;;;10.19;35.12
35307;BME280;21420;52.196;21.416;2023-05-01T19:22:05;100442.39;;;10.14;35.25
35307;BME280;21420;52.196;21.416;2023-05-01T19:24:32;100440.66;;;10.11;35.47
35307;BME280;21420;52.196;21.416;2023-05-01T19:26:59;100438.34;;;10.09;35.61
35307;BME280;21420;52.196;21.416;2023-05-01T19:29:30;100430.89;;;10.04;35.75
35307;BME280;21420;52.196;21.416;2023-05-01T19:31:57;100428.86;;;10.00;35.87
35307;BME280;21420;52.196;21.416;2023-05-01T19:34:26;100425.48;;;9.95;35.84
35307;BME280;21420;52.196;21.416;2023-05-01T19:36:53;100423.41;;;9.91;36.13
35307;BME280;21420;52.196;21.416;2023-05-01T19:39:22;100427.91;;;9.86;36.36
35307;BME280;21420;52.196;21.416;2023-05-01T19:41:49;100425.80;;;9.82;36.31
35307;BME280;21420;52.196;21.416;2023-05-01T19:44:16;100425.39;;;9.75;36.45
35307;BME280;21420;52.196;21.416;2023-05-01T19:46:43;100421.37;;;9.69;36.54
35307;BME280;21420;52.196;21.416;2023-05-01T19:49:10;100419.05;;;9.61;36.59
35307;BME280;21420;52.196;21.416;2023-05-01T19:51:37;100415.83;;;9.55;36.70
35307;BME280;21420;52.196;21.416;2023-05-01T19:54:04;100410.78;;;9.52;36.83
35307;BME280;21420;52.196;21.416;2023-05-01T19:56:30;100404.75;;;9.50;37.00
35307;BME280;21420;52.196;21.416;2023-05-01T19:58:57;100404.14;;;9.48;37.02
35307;BME280;21420;52.196;21.416;2023-05-01T20:01:26;100403.41;;;9.48;37.12
35307;BME280;21420;52.196;21.416;2023-05-01T20:03:56;100401.94;;;9.46;37.11
35307;BME280;21420;52.196;21.416;2023-05-01T20:06:23;100399.15;;;9.43;37.26
35307;BME280;21420;52.196;21.416;2023-05-01T20:08:50;100395.14;;;9.38;37.43
35307;BME280;21420;52.196;21.416;2023-05-01T20:11:17;100396.97;;;9.35;37.67
35307;BME280;21420;52.196;21.416;2023-05-01T20:13:44;100394.96;;;9.30;37.79
35307;BME280;21420;52.196;21.416;2023-05-01T20:16:11;100400.73;;;9.24;37.65
35307;BME280;21420;52.196;21.416;2023-05-01T20:18:38;100399.90;;;9.20;37.82
35307;BME280;21420;52.196;21.416;2023-05-01T20:21:05;100400.20;;;9.14;37.79
35307;BME280;21420;52.196;21.416;2023-05-01T20:23:33;100397.64;;;9.09;37.81
35307;BME280;21420;52.196;21.416;2023-05-01T20:26:00;100394.44;;;9.08;37.97
35307;BME280;21420;52.196;21.416;2023-05-01T20:28:27;100398.16;;;9.08;38.05
35307;BME280;21420;52.196;21.416;2023-05-01T20:30:54;100396.69;;;9.08;38.26
35307;BME280;21420;52.196;21.416;2023-05-01T20:33:21;100397.34;;;9.09;38.36
35307;BME280;21420;52.196;21.416;2023-05-01T20:35:48;100402.63;;;9.10;38.55
35307;BME280;21420;52.196;21.416;2023-05-01T20:38:16;100401.40;;;9.12;38.54
35307;BME280;21420;52.196;21.416;2023-05-01T20:40:43;100397.03;;;9.14;38.67
35307;BME280;21420;52.196;21.416;2023-05-01T20:43:10;100400.45;;;9.14;38.78
35307;BME280;21420;52.196;21.416;2023-05-01T20:45:38;100398.40;;;9.13;38.73
35307;BME280;21420;52.196;21.416;2023-05-01T20:48:05;100398.73;;;9.14;38.79
35307;BME280;21420;52.196;21.416;2023-05-01T20:50:32;100401.08;;;9.14;38.85
35307;BME280;21420;52.196;21.416;2023-05-01T20:53:00;100402.52;;;9.13;39.00
35307;BME280;21420;52.196;21.416;2023-05-01T20:55:27;100402.90;;;9.11;38.94
35307;BME280;21420;52.196;21.416;2023-05-01T20:57:55;100404.69;;;9.09;39.17
35307;BME280;21420;52.196;21.416;2023-05-01T21:00:22;100404.37;;;9.07;39.33
35307;BME280;21420;52.196;21.416;2023-05-01T21:02:49;100407.08;;;9.05;39.33
35307;BME280;21420;52.196;21.416;2023-05-01T21:05:17;100407.65;;;9.04;39.37
35307;BME280;21420;52.196;21.416;2023-05-01T21:07:44;100405.37;;;9.03;39.39
35307;BME280;21420;52.196;21.416;2023-05-01T21:10:10;100405.37;;;9.03;39.42
35307;BME280;21420;52.196;21.416;2023-05-01T21:12:39;100404.05;;;9.02;39.49
35307;BME280;21420;52.196;21.416;2023-05-01T21:15:07;100401.82;;;8.98;39.54
35307;BME280;21420;52.196;21.416;2023-05-01T21:17:35;100400.38;;;8.94;39.58
35307;BME280;21420;52.196;21.416;2023-05-01T21:20:04;100403.12;;;8.89;39.65
35307;BME280;21420;52.196;21.416;2023-05-01T21:22:34;100407.05;;;8.86;39.68
35307;BME280;21420;52.196;21.416;2023-05-01T21:25:01;100405.27;;;8.83;39.75
35307;BME280;21420;52.196;21.416;2023-05-01T21:27:28;100404.88;;;8.79;39.76
35307;BME280;21420;52.196;21.416;2023-05-01T21:29:56;100404.61;;;8.77;39.79
35307;BME280;21420;52.196;21.416;2023-05-01T21:32:29;100400.26;;;8.73;40.06
35307;BME280;21420;52.196;21.416;2023-05-01T21:34:59;100400.27;;;8.65;40.07
35307;BME280;21420;52.196;21.416;2023-05-01T21:37:26;100398.69;;;8.59;40.15
35307;BME280;21420;52.196;21.416;2023-05-01T21:39:59;100397.09;;;8.54;40.24
35307;BME280;21420;52.196;21.416;2023-05-01T21:42:34;100395.44;;;8.51;40.21
35307;BME280;21420;52.196;21.416;2023-05-01T21:45:05;100394.58;;;8.45;40.40
35307;BME280;21420;52.196;21.416;2023-05-01T21:47:36;100392.34;;;8.39;40.31
35307;BME280;21420;52.196;21.416;2023-05-01T21:50:05;100389.86;;;8.31;40.31
35307;BME280;21420;52.196;21.416;2023-05-01T21:52:33;100388.73;;;8.23;40.29
35307;BME280;21420;52.196;21.416;2023-05-01T21:55:01;100389.30;;;8.19;40.38
35307;BME280;21420;52.196;21.416;2023-05-01T21:57:29;100388.20;;;8.14;40.48
35307;BME280;21420;52.196;21.416;2023-05-01T21:59:59;100392.14;;;8.10;40.74
35307;BME280;21420;52.196;21.416;2023-05-01T22:02:29;100388.70;;;8.06;40.86
35307;BME280;21420;52.196;21.416;2023-05-01T22:05:00;100385.42;;;8.01;40.74
35307;BME280;21420;52.196;21.416;2023-05-01T22:07:27;100385.39;;;7.97;40.88
35307;BME280;21420;52.196;21.416;2023-05-01T22:09:56;100382.08;;;7.90;40.85
35307;BME280;21420;52.196;21.416;2023-05-01T22:12:24;100378.80;;;7.84;40.99
35307;BME280;21420;52.196;21.416;2023-05-01T22:14:51;100379.02;;;7.79;41.14
35307;BME280;21420;52.196;21.416;2023-05-01T22:17:18;100378.19;;;7.73;41.10
35307;BME280;21420;52.196;21.416;2023-05-01T22:19:50;100378.25;;;7.68;41.22
35307;BME280;21420;52.196;21.416;2023-05-01T22:22:17;100381.08;;;7.65;41.19
35307;BME280;21420;52.196;21.416;2023-05-01T22:24:45;100378.56;;;7.63;41.33
35307;BME280;21420;52.196;21.416;2023-05-01T22:27:11;100373.04;;;7.61;41.46
35307;BME280;21420;52.196;21.416;2023-05-01T22:29:38;100372.66;;;7.62;41.39
35307;BME280;21420;52.196;21.416;2023-05-01T22:32:05;100377.46;;;7.59;41.59
35307;BME280;21420;52.196;21.416;2023-05-01T22:34:32;100377.27;;;7.57;41.71
35307;BME280;21420;52.196;21.416;2023-05-01T22:36:58;100377.00;;;7.58;41.66
35307;BME280;21420;52.196;21.416;2023-05-01T22:39:25;100376.85;;;7.60;41.88
35307;BME280;21420;52.196;21.416;2023-05-01T22:41:51;100373.36;;;7.60;41.96
35307;BME280;21420;52.196;21.416;2023-05-01T22:44:19;100374.48;;;7.61;42.08
35307;BME280;21420;52.196;21.416;2023-05-01T22:46:47;100374.23;;;7.65;42.23
35307;BME280;21420;52.196;21.416;2023-05-01T22:49:14;100369.27;;;7.69;42.37
35307;BME280;21420;52.196;21.416;2023-05-01T22:51:41;100367.14;;;7.69;42.37
35307;BME280;21420;52.196;21.416;2023-05-01T22:54:07;100364.28;;;7.70;42.49
35307;BME280;21420;52.196;21.416;2023-05-01T22:56:34;100362.23;;;7.72;42.49
35307;BME280;21420;52.196;21.416;2023-05-01T22:59:00;100365.84;;;7.74;42.64
35307;BME280;21420;52.196;21.416;2023-05-01T23:01:27;100366.61;;;7.75;42.59
35307;BME280;21420;52.196;21.416;2023-05-01T23:03:54;100363.17;;;7.73;42.59
35307;BME280;21420;52.196;21.416;2023-05-01T23:06:22;100359.48;;;7.71;42.62
35307;BME280;21420;52.196;21.416;2023-05-01T23:08:52;100358.67;;;7.68;42.61
35307;BME280;21420;52.196;21.416;2023-05-01T23:11:21;100355.95;;;7.67;42.71
35307;BME280;21420;52.196;21.416;2023-05-01T23:13:48;100355.93;;;7.63;42.72
35307;BME280;21420;52.196;21.416;2023-05-01T23:16:15;100354.09;;;7.59;42.81
35307;BME280;21420;52.196;21.416;2023-05-01T23:18:43;100353.60;;;7.55;42.71
35307;BME280;21420;52.196;21.416;2023-05-01T23:21:16;100352.63;;;7.51;42.79
35307;BME280;21420;52.196;21.416;2023-05-01T23:23:44;100344.11;;;7.46;42.88
35307;BME280;21420;52.196;21.416;2023-05-01T23:26:25;100339.20;;;7.42;43.02
35307;BME280;21420;52.196;21.416;2023-05-01T23:28:52;100341.06;;;7.40;43.14
35307;BME280;21420;52.196;21.416;2023-05-01T23:31:23;100339.44;;;7.38;43.15
35307;BME280;21420;52.196;21.416;2023-05-01T23:33:53;100337.91;;;7.33;43.24
35307;BME280;21420;52.196;21.416;2023-05-01T23:36:20;100338.49;;;7.32;43.30
35307;BME280;21420;52.196;21.416;2023-05-01T23:38:47;100337.80;;;7.33;43.32
35307;BME280;21420;52.196;21.416;2023-05-01T23:41:15;100335.17;;;7.35;43.41
35307;BME280;21420;52.196;21.416;2023-05-01T23:43:42;100336.00;;;7.36;43.54
35307;BME280;21420;52.196;21.416;2023-05-01T23:46:12;100330.52;;;7.37;43.60
35307;BME280;21420;52.196;21.416;2023-05-01T23:48:39;100330.55;;;7.36;43.60
35307;BME280;21420;52.196;21.416;2023-05-01T23:51:06;100333.34;;;7.37;43.65
35307;BME280;21420;52.196;21.416;2023-05-01T23:53:33;100334.25;;;7.38;43.72
35307;BME280;21420;52.196;21.416;2023-05-01T23:56:00;100331.71;;;7.37;43.80
35307;BME280;21420;52.196;21.416;2023-05-01T23:58:27;100328.66;;;7.35;43.74
